Time;durP1;ratioP1;P1;durP2;ratioP2;P2;SDS_P1;SDS_P2;PMS_P1;PMS_P2;Temp;Humidity;BMP_temperature;BMP_pressure;BME280_temperature;BME280_humidity;BME280_pressure;Samples;Min_cycle;Max_cycle;Signal;HPM_P1;HPM_P2
2021/10/30 00:01:59;;;;;;;74.37;24.47;;;;;;;;;;5050836;28;20220;-74
2021/10/30 00:04:26;;;;;;;101.10;27.23;;;;;;;;;;5049974;28;20210;-75
2021/10/30 00:06:53;;;;;;;78.37;24.13;;;;;;;;;;5046521;28;20930;-75
2021/10/30 00:09:21;;;;;;;98.70;22.77;;;;;;;;;;5049371;28;20640;-75
2021/10/30 00:11:48;;;;;;;97.93;25.00;;;;;;;;;;5051924;28;20337;-75
2021/10/30 00:14:15;;;;;;;76.90;23.77;;;;;;;;;;5046638;28;20210;-75
2021/10/30 00:16:43;;;;;;;95.00;23.87;;;;;;;;;;5048994;28;20198;-76
2021/10/30 00:19:12;;;;;;;94.23;24.90;;;;;;;;;;5048662;28;20238;-76
2021/10/30 00:21:39;;;;;;;112.77;26.07;;;;;;;;;;5049557;28;20312;-75
2021/10/30 00:24:06;;;;;;;265.57;28.63;;;;;;;;;;5045222;28;20645;-76
2021/10/30 00:26:33;;;;;;;98.77;21.60;;;;;;;;;;5051027;28;20252;-76
2021/10/30 00:29:01;;;;;;;141.87;24.00;;;;;;;;;;5047196;28;20214;-75
2021/10/30 00:31:28;;;;;;;85.73;24.10;;;;;;;;;;5046994;28;20223;-74
2021/10/30 00:33:55;;;;;;;194.07;26.73;;;;;;;;;;5045369;28;20302;-75
2021/10/30 00:36:23;;;;;;;161.33;24.37;;;;;;;;;;5048496;28;20209;-76
2021/10/30 00:38:51;;;;;;;57.27;21.00;;;;;;;;;;5050871;28;20382;-75
2021/10/30 00:41:19;;;;;;;84.17;23.97;;;;;;;;;;5051406;28;20345;-75
2021/10/30 00:43:48;;;;;;;137.47;24.43;;;;;;;;;;5047240;28;20209;-75
2021/10/30 00:46:15;;;;;;;191.90;28.37;;;;;;;;;;5051877;28;20215;-75
2021/10/30 00:48:42;;;;;;;51.33;19.93;;;;;;;;;;5053120;28;20203;-76
2021/10/30 00:51:12;;;;;;;69.70;21.57;;;;;;;;;;5051190;28;20894;-75
2021/10/30 00:53:41;;;;;;;143.67;24.53;;;;;;;;;;5055398;28;20279;-75
2021/10/30 00:56:09;;;;;;;88.30;23.03;;;;;;;;;;5051483;28;20303;-74
2021/10/30 00:58:37;;;;;;;68.27;20.77;;;;;;;;;;5049988;28;20206;-75
2021/10/30 01:01:05;;;;;;;54.10;20.20;;;;;;;;;;5050417;28;20615;-74
2021/10/30 01:03:33;;;;;;;74.03;22.47;;;;;;;;;;5052966;28;20289;-75
2021/10/30 01:06:00;;;;;;;80.30;21.97;;;;;;;;;;5051704;28;20533;-75
2021/10/30 01:08:27;;;;;;;78.47;22.03;;;;;;;;;;5053514;28;20293;-76
2021/10/30 01:10:59;;;;;;;66.10;20.77;;;;;;;;;;5050362;28;20305;-74
2021/10/30 01:13:28;;;;;;;66.37;22.63;;;;;;;;;;5050835;28;20360;-75
2021/10/30 01:15:55;;;;;;;62.43;20.60;;;;;;;;;;5051047;28;20294;-75
2021/10/30 01:18:24;;;;;;;105.40;23.17;;;;;;;;;;5052271;28;20305;-74
2021/10/30 01:20:53;;;;;;;126.43;25.07;;;;;;;;;;5050704;28;20227;-76
2021/10/30 01:23:20;;;;;;;85.57;21.93;;;;;;;;;;5050638;28;20302;-76
2021/10/30 01:25:47;;;;;;;77.33;22.80;;;;;;;;;;5048045;28;20333;-75
2021/10/30 01:28:14;;;;;;;61.17;22.03;;;;;;;;;;5052535;28;20306;-74
2021/10/30 01:30:42;;;;;;;67.07;22.23;;;;;;;;;;5050135;28;21474;-74
2021/10/30 01:33:09;;;;;;;94.20;22.50;;;;;;;;;;5049891;28;21152;-75
2021/10/30 01:35:38;;;;;;;79.13;22.60;;;;;;;;;;5052514;28;20209;-74
2021/10/30 01:38:07;;;;;;;77.47;21.37;;;;;;;;;;5052574;28;20692;-74
2021/10/30 01:40:38;;;;;;;126.30;27.03;;;;;;;;;;5050419;28;20274;-74
2021/10/30 01:43:05;;;;;;;80.30;21.57;;;;;;;;;;5051512;28;20287;-74
2021/10/30 01:45:33;;;;;;;97.87;22.73;;;;;;;;;;5052342;28;20195;-75
2021/10/30 01:48:00;;;;;;;120.60;22.47;;;;;;;;;;5053479;28;20638;-75
2021/10/30 01:50:28;;;;;;;99.17;27.00;;;;;;;;;;5051053;28;20199;-75
2021/10/30 01:52:59;;;;;;;141.70;22.83;;;;;;;;;;5050634;28;20822;-75
2021/10/30 01:55:28;;;;;;;53.87;19.63;;;;;;;;;;5052848;28;20203;-75
2021/10/30 01:57:55;;;;;;;85.03;20.13;;;;;;;;;;5049643;28;20206;-75
2021/10/30 02:00:22;;;;;;;76.37;21.53;;;;;;;;;;5048452;28;20227;-75
2021/10/30 02:02:49;;;;;;;76.17;21.03;;;;;;;;;;5049354;28;20308;-75
2021/10/30 02:05:17;;;;;;;67.03;22.07;;;;;;;;;;5053459;28;20642;-76
2021/10/30 02:07:44;;;;;;;99.13;22.77;;;;;;;;;;5049057;28;20213;-75
2021/10/30 02:10:12;;;;;;;97.27;22.97;;;;;;;;;;5046821;28;20218;-76
2021/10/30 02:12:41;;;;;;;54.03;19.80;;;;;;;;;;5049917;28;20322;-76
2021/10/30 02:15:09;;;;;;;82.97;20.23;;;;;;;;;;5050955;28;20206;-75
2021/10/30 02:17:36;;;;;;;67.93;18.93;;;;;;;;;;5048850;28;20247;-74
2021/10/30 02:20:04;;;;;;;97.67;19.77;;;;;;;;;;5047130;28;20215;-76
2021/10/30 02:22:31;;;;;;;67.93;19.93;;;;;;;;;;5049270;28;20301;-74
2021/10/30 02:24:58;;;;;;;118.83;18.67;;;;;;;;;;5050121;28;20689;-75
2021/10/30 02:27:25;;;;;;;83.53;18.73;;;;;;;;;;5071130;22;20320;-86
2021/10/30 02:30:01;;;;;;;95.70;18.03;;;;;;;;;;5065896;28;20533;-86
2021/10/30 02:32:29;;;;;;;137.10;20.57;;;;;;;;;;5066929;28;20292;-84
2021/10/30 02:34:56;;;;;;;63.70;17.77;;;;;;;;;;5061499;28;20318;-88
2021/10/30 02:37:23;;;;;;;128.87;20.83;;;;;;;;;;5046614;28;20207;-84
2021/10/30 02:39:51;;;;;;;114.87;20.90;;;;;;;;;;5047480;28;20230;-87
2021/10/30 02:42:18;;;;;;;118.03;21.37;;;;;;;;;;5050149;28;20758;-86
2021/10/30 02:44:45;;;;;;;136.00;23.17;;;;;;;;;;5045928;28;20292;-86
2021/10/30 02:47:14;;;;;;;132.27;23.37;;;;;;;;;;5046123;28;20207;-87
2021/10/30 02:49:46;;;;;;;115.80;22.03;;;;;;;;;;5046707;28;20191;-84
2021/10/30 02:52:14;;;;;;;258.50;24.87;;;;;;;;;;5027826;28;20249;-87
2021/10/30 02:54:42;;;;;;;246.40;27.77;;;;;;;;;;5046687;28;20253;-84
2021/10/30 02:57:09;;;;;;;217.83;25.53;;;;;;;;;;5048503;28;20218;-86
2021/10/30 02:59:38;;;;;;;101.20;21.70;;;;;;;;;;5047677;28;20282;-86
2021/10/30 03:02:06;;;;;;;230.57;30.33;;;;;;;;;;5047411;28;20233;-85
2021/10/30 03:04:35;;;;;;;136.03;22.70;;;;;;;;;;5047098;28;20339;-85
2021/10/30 03:07:02;;;;;;;101.07;23.27;;;;;;;;;;5047562;28;20270;-84
2021/10/30 03:09:30;;;;;;;122.43;23.47;;;;;;;;;;5045688;28;20211;-86
2021/10/30 03:11:57;;;;;;;193.27;28.30;;;;;;;;;;5043517;28;20538;-88
2021/10/30 03:14:24;;;;;;;116.10;24.40;;;;;;;;;;5043748;28;20203;-86
2021/10/30 03:16:51;;;;;;;96.73;24.83;;;;;;;;;;5045287;28;20248;-86
2021/10/30 03:19:19;;;;;;;76.77;21.27;;;;;;;;;;5045230;28;20202;-83
2021/10/30 03:21:47;;;;;;;88.77;22.47;;;;;;;;;;5045331;28;20253;-86
2021/10/30 03:24:16;;;;;;;101.93;21.07;;;;;;;;;;5043072;28;20302;-86
2021/10/30 03:26:44;;;;;;;77.80;23.20;;;;;;;;;;5042628;28;20710;-86
2021/10/30 03:29:11;;;;;;;122.83;22.50;;;;;;;;;;5043326;28;20215;-86
2021/10/30 03:31:38;;;;;;;118.87;21.60;;;;;;;;;;5047178;28;20234;-86
2021/10/30 03:34:05;;;;;;;108.30;22.57;;;;;;;;;;5048207;28;20735;-89
2021/10/30 03:36:33;;;;;;;136.77;22.47;;;;;;;;;;5047336;28;20203;-85
2021/10/30 03:39:01;;;;;;;93.17;22.47;;;;;;;;;;5049462;28;20199;-87
2021/10/30 03:41:29;;;;;;;110.90;24.20;;;;;;;;;;5045528;28;20276;-86
2021/10/30 03:43:56;;;;;;;129.37;24.63;;;;;;;;;;5050038;28;20210;-87
2021/10/30 03:46:23;;;;;;;96.17;23.33;;;;;;;;;;5047044;28;20239;-86
2021/10/30 03:48:50;;;;;;;92.03;23.07;;;;;;;;;;5042752;28;20645;-83
2021/10/30 03:51:17;;;;;;;96.73;22.83;;;;;;;;;;5043939;28;20230;-85
2021/10/30 03:53:45;;;;;;;102.80;24.33;;;;;;;;;;5044035;28;20211;-85
2021/10/30 03:56:13;;;;;;;55.60;20.87;;;;;;;;;;5040216;28;20254;-86
2021/10/30 03:58:40;;;;;;;94.13;22.27;;;;;;;;;;5040833;28;20739;-84
2021/10/30 04:01:08;;;;;;;71.23;20.07;;;;;;;;;;5041448;28;20309;-86
2021/10/30 04:03:35;;;;;;;53.30;19.37;;;;;;;;;;5038907;28;20290;-83
2021/10/30 04:06:02;;;;;;;55.27;19.77;;;;;;;;;;5039904;28;20230;-84
2021/10/30 04:08:29;;;;;;;56.77;19.73;;;;;;;;;;5039441;28;20754;-85
2021/10/30 04:10:57;;;;;;;68.27;21.17;;;;;;;;;;5037835;28;20218;-83
2021/10/30 04:13:25;;;;;;;54.17;20.53;;;;;;;;;;5036956;28;22050;-85
2021/10/30 04:15:52;;;;;;;50.93;20.70;;;;;;;;;;5034338;28;20782;-83
2021/10/30 04:18:20;;;;;;;61.43;20.93;;;;;;;;;;5037429;28;20429;-82
2021/10/30 04:20:47;;;;;;;50.77;19.63;;;;;;;;;;5040103;28;20687;-85
2021/10/30 04:23:15;;;;;;;50.57;19.50;;;;;;;;;;5045142;28;20207;-85
2021/10/30 04:25:42;;;;;;;52.97;21.30;;;;;;;;;;5042307;28;20758;-85
2021/10/30 04:28:09;;;;;;;54.47;20.70;;;;;;;;;;5039518;28;20206;-83
2021/10/30 04:30:41;;;;;;;47.27;20.20;;;;;;;;;;5045465;28;20207;-86
2021/10/30 06:04:41;;;;;;;42.47;17.70;;;;;;;;;;5057092;22;20233;-77
2021/10/30 06:07:08;;;;;;;41.40;18.10;;;;;;;;;;5059786;28;20298;-77
2021/10/30 06:09:35;;;;;;;39.33;18.27;;;;;;;;;;5060814;28;20210;-77
2021/10/30 06:12:02;;;;;;;44.20;18.57;;;;;;;;;;5045253;28;20227;-77
2021/10/30 06:14:30;;;;;;;42.23;18.37;;;;;;;;;;5044226;28;20294;-77
2021/10/30 06:16:57;;;;;;;44.87;18.87;;;;;;;;;;5041930;28;20287;-76
2021/10/30 06:19:25;;;;;;;37.37;16.97;;;;;;;;;;5038599;28;20305;-76
2021/10/30 06:21:53;;;;;;;37.00;17.83;;;;;;;;;;5035895;28;20228;-76
2021/10/30 06:24:21;;;;;;;41.80;18.13;;;;;;;;;;5038126;28;20211;-75
2021/10/30 06:26:49;;;;;;;44.93;19.90;;;;;;;;;;5039547;28;20204;-76
2021/10/30 06:29:16;;;;;;;42.13;17.70;;;;;;;;;;5043896;28;20333;-76
2021/10/30 06:31:43;;;;;;;46.40;19.60;;;;;;;;;;5044272;28;20314;-77
2021/10/30 06:34:11;;;;;;;45.40;19.30;;;;;;;;;;5041171;28;20289;-77
2021/10/30 06:36:38;;;;;;;45.43;19.83;;;;;;;;;;5042927;28;20202;-77
2021/10/30 06:39:07;;;;;;;42.97;19.83;;;;;;;;;;5044344;28;20588;-77
2021/10/30 06:41:34;;;;;;;42.10;19.93;;;;;;;;;;5039407;28;20231;-77
2021/10/30 06:44:01;;;;;;;43.17;19.30;;;;;;;;;;5038968;28;20205;-77
2021/10/30 06:46:29;;;;;;;42.63;19.57;;;;;;;;;;5040746;28;20285;-77
2021/10/30 06:48:57;;;;;;;43.17;18.93;;;;;;;;;;5038169;28;20203;-76
2021/10/30 06:51:24;;;;;;;42.00;19.57;;;;;;;;;;5038688;28;20220;-76
2021/10/30 06:53:52;;;;;;;45.47;20.73;;;;;;;;;;5039559;28;20203;-77
2021/10/30 06:56:21;;;;;;;44.13;20.83;;;;;;;;;;5041502;28;20294;-77
2021/10/30 06:58:48;;;;;;;44.47;19.87;;;;;;;;;;5041495;28;20207;-75
2021/10/30 07:01:16;;;;;;;39.50;18.37;;;;;;;;;;5035000;28;20311;-74
2021/10/30 07:03:43;;;;;;;39.53;18.53;;;;;;;;;;5036481;28;20297;-75
2021/10/30 07:06:11;;;;;;;38.93;18.53;;;;;;;;;;5037285;28;20614;-74
2021/10/30 07:08:38;;;;;;;43.57;18.77;;;;;;;;;;5034398;28;20397;-73
2021/10/30 07:11:05;;;;;;;35.20;17.90;;;;;;;;;;5037625;28;20363;-74
2021/10/30 07:13:34;;;;;;;45.23;19.47;;;;;;;;;;5035209;28;20213;-74
2021/10/30 07:16:01;;;;;;;40.07;18.73;;;;;;;;;;5038228;28;20199;-74
2021/10/30 07:18:28;;;;;;;40.20;19.20;;;;;;;;;;5039158;28;20203;-74
2021/10/30 07:20:55;;;;;;;37.87;17.87;;;;;;;;;;5040456;28;20310;-74
2021/10/30 07:23:23;;;;;;;44.67;18.30;;;;;;;;;;5033354;28;20259;-75
2021/10/30 07:25:50;;;;;;;35.90;18.47;;;;;;;;;;5035284;28;20207;-75
2021/10/30 07:28:20;;;;;;;39.47;18.80;;;;;;;;;;5036005;28;20207;-75
2021/10/30 07:30:49;;;;;;;44.73;19.13;;;;;;;;;;5039964;28;20209;-74
2021/10/30 07:33:16;;;;;;;42.53;19.60;;;;;;;;;;5030847;28;20237;-74
2021/10/30 07:35:43;;;;;;;43.47;20.13;;;;;;;;;;5034132;28;20199;-74
2021/10/30 07:38:10;;;;;;;39.10;18.57;;;;;;;;;;5036969;28;20824;-75
2021/10/30 07:40:38;;;;;;;39.43;18.70;;;;;;;;;;5035271;28;20286;-74
2021/10/30 07:43:05;;;;;;;41.97;19.90;;;;;;;;;;5032755;28;20680;-73
2021/10/30 07:45:32;;;;;;;45.97;20.00;;;;;;;;;;5032759;28;20293;-74
2021/10/30 07:48:01;;;;;;;43.20;19.23;;;;;;;;;;5033649;28;20749;-75
2021/10/30 07:50:29;;;;;;;43.33;19.17;;;;;;;;;;5036355;28;20242;-75
2021/10/30 07:52:56;;;;;;;40.80;19.90;;;;;;;;;;5038930;28;20210;-74
2021/10/30 07:55:24;;;;;;;39.93;19.93;;;;;;;;;;5034665;28;20234;-75
2021/10/30 07:57:51;;;;;;;47.30;19.57;;;;;;;;;;5036669;28;20826;-75
2021/10/30 08:00:18;;;;;;;41.70;19.27;;;;;;;;;;5034657;28;20242;-75
2021/10/30 08:02:46;;;;;;;42.63;19.70;;;;;;;;;;5034858;28;21747;-76
2021/10/30 08:05:15;;;;;;;44.50;20.50;;;;;;;;;;5039442;28;20706;-75
2021/10/30 08:07:43;;;;;;;37.93;18.30;;;;;;;;;;5031708;28;20242;-73
2021/10/30 08:10:11;;;;;;;41.43;18.93;;;;;;;;;;5035690;28;20214;-74
2021/10/30 08:12:38;;;;;;;39.87;19.43;;;;;;;;;;5037926;28;20225;-76
2021/10/30 08:15:06;;;;;;;42.20;18.30;;;;;;;;;;5034188;28;20242;-74
2021/10/30 08:17:34;;;;;;;34.80;17.93;;;;;;;;;;5037263;28;20767;-74
2021/10/30 08:20:02;;;;;;;37.20;17.80;;;;;;;;;;5036735;28;20335;-74
2021/10/30 08:22:31;;;;;;;42.33;18.83;;;;;;;;;;5035154;28;20318;-74
2021/10/30 08:24:58;;;;;;;39.47;18.57;;;;;;;;;;5034762;28;20233;-76
2021/10/30 08:27:25;;;;;;;36.13;18.67;;;;;;;;;;5033077;28;20668;-75
2021/10/30 08:29:52;;;;;;;42.17;20.33;;;;;;;;;;5036849;28;20759;-75
2021/10/30 08:32:19;;;;;;;39.43;18.70;;;;;;;;;;5035162;28;20768;-75
2021/10/30 08:34:47;;;;;;;41.93;21.20;;;;;;;;;;5033401;28;20299;-75
2021/10/30 08:37:14;;;;;;;39.90;19.47;;;;;;;;;;5038983;28;20203;-75
2021/10/30 08:39:42;;;;;;;43.17;20.00;;;;;;;;;;5035080;28;20239;-74
2021/10/30 08:42:10;;;;;;;39.03;19.30;;;;;;;;;;5030671;28;20258;-75
2021/10/30 08:44:38;;;;;;;39.30;19.47;;;;;;;;;;5036710;28;20653;-76
2021/10/30 08:47:06;;;;;;;38.67;19.30;;;;;;;;;;5039940;28;20616;-74
2021/10/30 08:49:36;;;;;;;36.90;18.03;;;;;;;;;;5034849;28;20298;-74
2021/10/30 08:52:03;;;;;;;40.37;19.13;;;;;;;;;;5039260;28;20226;-74
2021/10/30 08:54:30;;;;;;;38.00;18.77;;;;;;;;;;5042870;28;20294;-75
2021/10/30 08:56:59;;;;;;;38.73;18.57;;;;;;;;;;5041635;28;20286;-76
2021/10/30 08:59:41;;;;;;;38.83;16.67;;;;;;;;;;5042549;28;20203;-74
2021/10/30 09:02:09;;;;;;;53.30;26.43;;;;;;;;;;5033614;28;20314;-74
2021/10/30 09:04:36;;;;;;;37.03;18.87;;;;;;;;;;5031576;28;20218;-75
2021/10/30 09:07:06;;;;;;;167.00;79.97;;;;;;;;;;5036416;28;20307;-75
2021/10/30 09:09:34;;;;;;;39.80;19.83;;;;;;;;;;5043259;28;20681;-74
2021/10/30 09:12:04;;;;;;;31.80;17.07;;;;;;;;;;5037990;28;20724;-75
2021/10/30 09:14:32;;;;;;;41.80;19.30;;;;;;;;;;5040978;28;20208;-74
2021/10/30 09:17:15;;;;;;;37.07;18.93;;;;;;;;;;5045840;28;20261;-76
2021/10/30 09:19:45;;;;;;;40.87;19.87;;;;;;;;;;5042426;28;20298;-75
2021/10/30 09:22:12;;;;;;;43.30;19.83;;;;;;;;;;5047489;28;20250;-75
2021/10/30 09:24:52;;;;;;;34.17;16.47;;;;;;;;;;5043680;28;20278;-73
2021/10/30 09:27:23;;;;;;;36.30;17.03;;;;;;;;;;5036466;28;20235;-74
2021/10/30 09:29:57;;;;;;;32.67;15.27;;;;;;;;;;5038135;28;20229;-74
2021/10/30 09:32:27;;;;;;;30.30;15.17;;;;;;;;;;5039001;28;20308;-75
2021/10/30 09:34:55;;;;;;;28.87;14.50;;;;;;;;;;5044736;28;20282;-74
2021/10/30 09:37:23;;;;;;;32.77;15.07;;;;;;;;;;5036538;28;20243;-74
2021/10/30 09:40:15;;;;;;;32.57;16.03;;;;;;;;;;5038073;28;20219;-77
2021/10/30 09:42:43;;;;;;;31.63;15.27;;;;;;;;;;5044610;28;20326;-75
2021/10/30 09:45:11;;;;;;;33.57;15.37;;;;;;;;;;5043026;28;20282;-76
2021/10/30 09:47:40;;;;;;;28.83;15.23;;;;;;;;;;5045979;28;20233;-75
2021/10/30 09:50:22;;;;;;;30.10;16.00;;;;;;;;;;5043855;28;20329;-75
2021/10/30 09:52:49;;;;;;;29.07;14.57;;;;;;;;;;5043042;28;20229;-75
2021/10/30 09:55:23;;;;;;;31.33;14.87;;;;;;;;;;5038358;28;20291;-75
2021/10/30 09:57:58;;;;;;;31.60;15.73;;;;;;;;;;5040003;28;20293;-75
2021/10/30 10:00:26;;;;;;;28.00;14.40;;;;;;;;;;5037960;28;20297;-74
2021/10/30 10:02:53;;;;;;;30.97;15.93;;;;;;;;;;5034317;28;20228;-75
2021/10/30 10:05:21;;;;;;;33.03;15.40;;;;;;;;;;5034703;28;20262;-74
2021/10/30 10:07:49;;;;;;;31.10;14.37;;;;;;;;;;5035267;28;20239;-75
2021/10/30 10:10:16;;;;;;;29.73;13.83;;;;;;;;;;5035973;28;20824;-74
2021/10/30 10:12:44;;;;;;;29.03;14.70;;;;;;;;;;5033099;28;20254;-75
2021/10/30 10:15:15;;;;;;;31.63;15.50;;;;;;;;;;5037284;28;20671;-75
2021/10/30 10:17:43;;;;;;;28.97;15.20;;;;;;;;;;5035166;28;20669;-75
2021/10/30 10:20:11;;;;;;;29.50;13.97;;;;;;;;;;5037526;28;20316;-75
2021/10/30 10:22:39;;;;;;;30.03;14.63;;;;;;;;;;5041388;28;20230;-74
2021/10/30 10:25:24;;;;;;;28.87;14.47;;;;;;;;;;5046834;28;20203;-76
2021/10/30 10:27:51;;;;;;;33.93;15.83;;;;;;;;;;5043304;28;20207;-76
2021/10/30 10:30:20;;;;;;;27.40;13.73;;;;;;;;;;5045714;28;20281;-75
2021/10/30 10:32:47;;;;;;;29.97;14.73;;;;;;;;;;5045065;28;20302;-74
2021/10/30 10:35:16;;;;;;;30.87;14.80;;;;;;;;;;5037676;28;20298;-76
2021/10/30 10:37:52;;;;;;;26.33;13.33;;;;;;;;;;5035600;28;20245;-75
2021/10/30 10:40:30;;;;;;;27.30;14.03;;;;;;;;;;5033724;28;20209;-74
2021/10/30 10:42:57;;;;;;;28.40;14.53;;;;;;;;;;5034651;28;20322;-74
2021/10/30 10:45:45;;;;;;;26.20;13.67;;;;;;;;;;5034858;28;20238;-75
2021/10/30 10:48:14;;;;;;;25.40;14.10;;;;;;;;;;5033528;28;20618;-73
2021/10/30 10:50:50;;;;;;;26.47;13.23;;;;;;;;;;5031049;28;20203;-76
2021/10/30 10:53:18;;;;;;;26.27;14.00;;;;;;;;;;5040226;28;20195;-75
2021/10/30 10:56:04;;;;;;;29.03;14.17;;;;;;;;;;5033481;28;20207;-75
2021/10/30 10:58:36;;;;;;;27.63;14.10;;;;;;;;;;5039704;28;20685;-76
2021/10/30 11:01:04;;;;;;;29.27;14.40;;;;;;;;;;5036628;28;20326;-74
2021/10/30 11:03:33;;;;;;;26.43;13.33;;;;;;;;;;5035228;28;20310;-75
2021/10/30 11:06:00;;;;;;;28.13;14.17;;;;;;;;;;5039801;28;20302;-76
2021/10/30 11:08:29;;;;;;;27.17;13.37;;;;;;;;;;5033158;28;20338;-75
2021/10/30 11:11:13;;;;;;;31.40;14.60;;;;;;;;;;5032854;28;20721;-76
2021/10/30 11:13:47;;;;;;;27.27;13.93;;;;;;;;;;5034057;28;20294;-74
2021/10/30 11:16:15;;;;;;;27.13;14.33;;;;;;;;;;5031649;28;20711;-74
2021/10/30 11:18:56;;;;;;;32.43;16.13;;;;;;;;;;5027571;28;20217;-74
2021/10/30 11:21:25;;;;;;;30.70;14.93;;;;;;;;;;5031282;28;20234;-76
2021/10/30 11:23:53;;;;;;;29.27;14.37;;;;;;;;;;5031198;28;20642;-74
2021/10/30 11:26:24;;;;;;;31.13;14.47;;;;;;;;;;5025555;28;20203;-74
2021/10/30 11:28:52;;;;;;;27.47;13.73;;;;;;;;;;5035125;28;20269;-74
2021/10/30 11:31:20;;;;;;;28.67;14.37;;;;;;;;;;5033074;28;20635;-75
2021/10/30 11:33:58;;;;;;;30.63;15.53;;;;;;;;;;5032619;28;20235;-75
2021/10/30 11:36:25;;;;;;;29.43;15.13;;;;;;;;;;5035659;28;20699;-76
2021/10/30 11:38:53;;;;;;;32.10;14.13;;;;;;;;;;5030324;28;20289;-76
2021/10/30 11:41:21;;;;;;;29.90;14.10;;;;;;;;;;5027938;28;20646;-74
2021/10/30 11:43:49;;;;;;;27.67;13.67;;;;;;;;;;5032549;28;20361;-75
2021/10/30 11:46:18;;;;;;;26.73;13.87;;;;;;;;;;5035661;28;20287;-76
2021/10/30 11:48:47;;;;;;;26.37;12.10;;;;;;;;;;5032826;28;20213;-78
2021/10/30 11:51:16;;;;;;;23.07;11.63;;;;;;;;;;5034068;28;20219;-76
2021/10/30 11:53:44;;;;;;;27.73;13.37;;;;;;;;;;5037030;28;20243;-77
2021/10/30 11:56:12;;;;;;;35.67;19.53;;;;;;;;;;5029430;28;20199;-76
2021/10/30 11:58:40;;;;;;;31.47;17.93;;;;;;;;;;5030747;28;20199;-76
2021/10/30 12:01:21;;;;;;;27.60;15.03;;;;;;;;;;5035687;28;20226;-77
2021/10/30 12:03:48;;;;;;;42.67;22.80;;;;;;;;;;5039976;28;20285;-77
2021/10/30 12:06:17;;;;;;;43.27;25.40;;;;;;;;;;5042156;28;20690;-77
2021/10/30 12:08:44;;;;;;;30.37;15.00;;;;;;;;;;5039635;28;20204;-76
2021/10/30 12:11:11;;;;;;;32.60;15.90;;;;;;;;;;5032389;28;20721;-77
2021/10/30 12:13:42;;;;;;;28.10;15.67;;;;;;;;;;5034146;28;20203;-77
2021/10/30 12:16:10;;;;;;;33.27;13.87;;;;;;;;;;5031317;28;20211;-77
2021/10/30 12:18:37;;;;;;;31.50;14.70;;;;;;;;;;5032936;28;20469;-76
2021/10/30 12:21:04;;;;;;;26.50;13.83;;;;;;;;;;5036331;28;20709;-76
2021/10/30 12:23:33;;;;;;;32.17;15.53;;;;;;;;;;5033512;28;20320;-79
2021/10/30 12:26:06;;;;;;;30.70;15.20;;;;;;;;;;5039021;28;20286;-77
2021/10/30 12:28:34;;;;;;;28.73;14.03;;;;;;;;;;5037387;28;20214;-80
2021/10/30 12:31:01;;;;;;;27.03;13.60;;;;;;;;;;5040344;28;20218;-77
2021/10/30 12:33:33;;;;;;;25.23;13.77;;;;;;;;;;5041239;28;20270;-77
2021/10/30 12:36:00;;;;;;;29.17;13.93;;;;;;;;;;5038531;28;20694;-77
2021/10/30 12:38:28;;;;;;;28.27;14.60;;;;;;;;;;5036408;28;20714;-77
2021/10/30 12:40:58;;;;;;;34.17;15.90;;;;;;;;;;5033990;28;20227;-76
2021/10/30 12:43:26;;;;;;;33.07;15.57;;;;;;;;;;5035788;28;20724;-77
2021/10/30 12:45:56;;;;;;;31.20;15.37;;;;;;;;;;5038026;28;20203;-77
2021/10/30 12:48:25;;;;;;;30.17;15.20;;;;;;;;;;5038059;28;20299;-76
2021/10/30 12:50:57;;;;;;;32.10;15.70;;;;;;;;;;5036598;28;20289;-77
2021/10/30 12:53:29;;;;;;;34.13;15.50;;;;;;;;;;5037794;28;20298;-75
2021/10/30 12:56:06;;;;;;;33.60;15.90;;;;;;;;;;5041485;28;20199;-75
2021/10/30 12:58:37;;;;;;;32.63;16.43;;;;;;;;;;5039478;28;20238;-74
2021/10/30 13:01:05;;;;;;;35.10;16.70;;;;;;;;;;5040196;28;20290;-74
2021/10/30 13:03:32;;;;;;;32.87;15.93;;;;;;;;;;5034735;28;20744;-74
2021/10/30 13:06:01;;;;;;;33.93;16.50;;;;;;;;;;5037556;28;20856;-74
2021/10/30 13:08:31;;;;;;;37.27;16.57;;;;;;;;;;5034969;28;20208;-74
2021/10/30 13:10:58;;;;;;;34.33;16.33;;;;;;;;;;5039644;28;20719;-74
2021/10/30 13:13:27;;;;;;;35.90;16.13;;;;;;;;;;5038825;28;20338;-75
2021/10/30 13:15:54;;;;;;;38.73;17.03;;;;;;;;;;5044252;28;20235;-75
2021/10/30 13:18:21;;;;;;;37.60;16.33;;;;;;;;;;5039576;28;20666;-74
2021/10/30 13:20:48;;;;;;;33.93;15.43;;;;;;;;;;5039616;28;20294;-73
2021/10/30 13:23:15;;;;;;;37.97;17.70;;;;;;;;;;5035782;28;20290;-73
2021/10/30 13:25:43;;;;;;;39.07;17.17;;;;;;;;;;5035730;28;20231;-73
2021/10/30 13:28:10;;;;;;;36.63;17.87;;;;;;;;;;5035518;28;20222;-75
2021/10/30 13:30:39;;;;;;;38.77;17.80;;;;;;;;;;5036078;28;20303;-74
2021/10/30 13:33:06;;;;;;;39.20;17.63;;;;;;;;;;5034513;28;20287;-75
2021/10/30 13:35:33;;;;;;;44.80;17.87;;;;;;;;;;5032430;28;20573;-73
2021/10/30 13:38:03;;;;;;;39.97;18.03;;;;;;;;;;5031188;28;20238;-73
2021/10/30 13:40:31;;;;;;;37.87;17.90;;;;;;;;;;5032280;28;20203;-74
2021/10/30 13:42:58;;;;;;;37.03;17.23;;;;;;;;;;5035237;28;20214;-75
2021/10/30 13:45:26;;;;;;;39.07;17.10;;;;;;;;;;5033773;28;20622;-73
2021/10/30 13:47:54;;;;;;;42.03;18.57;;;;;;;;;;5032780;28;20285;-76
2021/10/30 13:50:22;;;;;;;41.30;16.83;;;;;;;;;;5032160;28;20208;-77
2021/10/30 13:52:49;;;;;;;37.20;17.93;;;;;;;;;;5037150;28;20298;-76
2021/10/30 13:55:18;;;;;;;37.43;17.87;;;;;;;;;;5035332;28;20653;-76
2021/10/30 13:57:45;;;;;;;39.47;17.97;;;;;;;;;;5035700;28;20195;-76
2021/10/30 14:00:13;;;;;;;38.13;17.37;;;;;;;;;;5035906;28;20286;-76
2021/10/30 14:02:40;;;;;;;43.17;18.47;;;;;;;;;;5037209;28;20778;-76
2021/10/30 14:05:09;;;;;;;38.67;17.00;;;;;;;;;;5034111;28;20293;-75
2021/10/30 14:07:37;;;;;;;33.10;15.90;;;;;;;;;;5035215;28;20689;-76
2021/10/30 14:10:04;;;;;;;36.17;17.07;;;;;;;;;;5035426;28;20230;-75
2021/10/30 14:12:32;;;;;;;35.40;16.97;;;;;;;;;;5032348;28;20222;-75
2021/10/30 14:14:59;;;;;;;40.13;18.03;;;;;;;;;;5029173;28;20572;-75
2021/10/30 14:17:26;;;;;;;35.43;17.13;;;;;;;;;;5032152;28;20207;-75
2021/10/30 14:19:54;;;;;;;38.90;18.33;;;;;;;;;;5034220;28;20278;-76
2021/10/30 14:22:22;;;;;;;40.70;18.63;;;;;;;;;;5030734;28;20252;-75
2021/10/30 14:24:49;;;;;;;32.30;15.87;;;;;;;;;;5040330;28;20314;-76
2021/10/30 14:27:17;;;;;;;38.77;17.20;;;;;;;;;;5057396;22;20355;-76
2021/10/30 14:29:44;;;;;;;37.77;17.50;;;;;;;;;;5051704;28;20342;-77
2021/10/30 14:32:11;;;;;;;36.10;17.47;;;;;;;;;;5056073;28;20302;-75
2021/10/30 14:34:38;;;;;;;39.80;17.10;;;;;;;;;;5052586;28;20569;-76
2021/10/30 14:37:05;;;;;;;36.60;17.23;;;;;;;;;;5053942;28;20262;-75
2021/10/30 14:39:34;;;;;;;37.77;17.17;;;;;;;;;;5054775;28;20297;-75
2021/10/30 14:42:01;;;;;;;41.37;17.97;;;;;;;;;;5050297;28;20701;-75
2021/10/30 14:44:30;;;;;;;47.37;21.40;;;;;;;;;;5050236;28;20222;-75
2021/10/30 14:46:57;;;;;;;44.53;20.33;;;;;;;;;;5052820;28;20230;-75
2021/10/30 14:49:25;;;;;;;33.80;16.07;;;;;;;;;;5051955;28;20238;-75
2021/10/30 14:51:52;;;;;;;38.27;17.97;;;;;;;;;;5051443;28;20407;-75
2021/10/30 14:54:19;;;;;;;42.50;18.57;;;;;;;;;;5050196;28;20293;-75
2021/10/30 14:56:48;;;;;;;41.10;17.73;;;;;;;;;;5052134;28;20289;-75
2021/10/30 14:59:15;;;;;;;43.17;17.70;;;;;;;;;;5051833;28;20672;-75
2021/10/30 15:01:42;;;;;;;35.47;15.93;;;;;;;;;;5052362;28;20258;-74
2021/10/30 15:04:09;;;;;;;33.17;15.83;;;;;;;;;;5054059;28;20233;-75
2021/10/30 15:06:36;;;;;;;41.50;19.10;;;;;;;;;;5052353;28;20297;-75
2021/10/30 15:09:03;;;;;;;36.77;17.10;;;;;;;;;;5056032;28;20210;-75
2021/10/30 15:11:31;;;;;;;38.70;17.37;;;;;;;;;;5054002;28;20266;-75
2021/10/30 15:13:59;;;;;;;32.87;15.43;;;;;;;;;;5053106;28;20203;-75
2021/10/30 15:16:27;;;;;;;34.17;16.20;;;;;;;;;;5050887;28;20302;-75
2021/10/30 15:18:54;;;;;;;32.50;16.17;;;;;;;;;;5054413;28;20289;-74
2021/10/30 15:21:21;;;;;;;33.27;15.97;;;;;;;;;;5054708;28;20270;-75
2021/10/30 15:23:49;;;;;;;37.23;17.57;;;;;;;;;;5050144;28;20736;-75
2021/10/30 15:26:16;;;;;;;37.00;16.90;;;;;;;;;;5055442;28;20305;-75
2021/10/30 15:28:43;;;;;;;35.80;15.87;;;;;;;;;;5053260;28;20286;-75
2021/10/30 15:31:13;;;;;;;35.97;16.93;;;;;;;;;;5053669;28;20254;-77
2021/10/30 15:33:40;;;;;;;40.90;17.57;;;;;;;;;;5054510;28;20672;-75
2021/10/30 15:36:09;;;;;;;37.50;17.07;;;;;;;;;;5056727;28;20221;-75
2021/10/30 15:38:37;;;;;;;36.83;16.87;;;;;;;;;;5054042;28;20251;-75
2021/10/30 15:41:07;;;;;;;34.10;16.10;;;;;;;;;;5053310;28;20768;-76
2021/10/30 15:43:35;;;;;;;35.63;16.87;;;;;;;;;;5050687;28;20209;-76
2021/10/30 15:46:02;;;;;;;40.40;18.07;;;;;;;;;;5053047;28;20303;-76
2021/10/30 15:48:32;;;;;;;43.63;17.97;;;;;;;;;;5054566;28;20636;-76
2021/10/30 15:50:59;;;;;;;42.57;19.40;;;;;;;;;;5050763;28;20222;-76
2021/10/30 15:53:27;;;;;;;43.23;18.70;;;;;;;;;;5050643;28;20593;-76
2021/10/30 15:55:54;;;;;;;43.03;19.13;;;;;;;;;;5051596;28;20294;-76